Time;durP1;ratioP1;P1;durP2;ratioP2;P2;SDS_P1;SDS_P2;PMS_P1;PMS_P2;Temp;Humidity;BMP_temperature;BMP_pressure;BME280_temperature;BME280_humidity;BME280_pressure;Samples;Min_cycle;Max_cycle;Signal;HPM_P1;HPM_P2
2021/08/31 00:01:15;;;;;;;14.47;9.23;;;15.90;99.90;;;;;;5228471;28;20192;-68
2021/08/31 00:03:48;;;;;;;14.93;9.67;;;15.90;99.90;;;;;;5227119;28;20210;-68
2021/08/31 00:06:20;;;;;;;19.40;10.40;;;15.90;99.90;;;;;;5227842;28;20209;-68
2021/08/31 00:08:52;;;;;;;15.83;10.20;;;15.90;99.90;;;;;;5211396;28;20533;-68
2021/08/31 00:11:24;;;;;;;15.50;9.63;;;15.80;99.90;;;;;;5229211;28;20213;-69
2021/08/31 00:13:58;;;;;;;17.57;9.80;;;15.70;99.90;;;;;;5229102;28;20233;-72
2021/08/31 00:16:30;;;;;;;14.70;10.30;;;15.70;99.90;;;;;;5228885;28;20540;-72
2021/08/31 00:19:02;;;;;;;16.90;10.23;;;15.70;99.90;;;;;;5229126;28;20225;-71
2021/08/31 00:21:34;;;;;;;18.63;10.80;;;15.70;99.90;;;;;;5228110;28;20232;-68
2021/08/31 00:24:09;;;;;;;18.27;10.77;;;15.70;99.90;;;;;;5228045;28;20279;-68
2021/08/31 00:26:43;;;;;;;20.10;11.70;;;15.80;99.90;;;;;;5228399;28;20291;-68
2021/08/31 00:29:15;;;;;;;16.33;10.07;;;15.70;99.90;;;;;;5228910;28;20228;-67
2021/08/31 00:31:48;;;;;;;16.07;11.93;;;15.70;99.90;;;;;;5227778;28;20209;-68
2021/08/31 00:34:20;;;;;;;24.23;12.00;;;15.80;99.90;;;;;;5260908;28;20629;-68
2021/08/31 00:36:54;;;;;;;17.03;11.83;;;15.80;99.90;;;;;;5211067;28;20197;-67
2021/08/31 00:39:26;;;;;;;21.27;11.83;;;15.80;99.90;;;;;;5227398;28;20229;-68
2021/08/31 00:41:58;;;;;;;21.23;11.37;;;15.80;99.90;;;;;;5244328;28;20205;-70
2021/08/31 00:44:30;;;;;;;17.47;12.23;;;15.80;99.90;;;;;;5227492;28;20237;-70
2021/08/31 00:47:05;;;;;;;22.10;11.77;;;15.80;99.90;;;;;;5228633;28;20216;-66
2021/08/31 00:49:40;;;;;;;19.33;12.43;;;15.80;99.90;;;;;;5227470;28;20249;-69
2021/08/31 00:52:12;;;;;;;20.33;11.77;;;15.80;99.90;;;;;;5232768;28;20209;-68
2021/08/31 00:54:45;;;;;;;30.40;11.83;;;15.80;99.90;;;;;;5210814;28;20235;-68
2021/08/31 00:57:20;;;;;;;19.20;11.23;;;15.80;99.90;;;;;;5227969;28;20284;-69
2021/08/31 00:59:52;;;;;;;19.90;11.43;;;15.80;99.90;;;;;;5228276;28;20585;-68
2021/08/31 01:02:25;;;;;;;19.37;11.50;;;15.70;99.90;;;;;;5227514;28;20212;-70
2021/08/31 01:04:57;;;;;;;19.43;10.57;;;15.70;99.90;;;;;;5228099;28;20735;-67
2021/08/31 01:07:30;;;;;;;18.73;11.50;;;15.70;99.90;;;;;;5227696;28;20210;-67
2021/08/31 01:10:03;;;;;;;17.37;10.50;;;15.60;99.90;;;;;;5260510;28;20229;-68
2021/08/31 01:12:38;;;;;;;20.30;11.77;;;15.60;99.90;;;;;;5232711;28;20229;-68
2021/08/31 01:15:15;;;;;;;22.37;11.33;;;15.60;99.90;;;;;;5234946;28;20514;-68
2021/08/31 01:17:48;;;;;;;18.67;12.17;;;15.60;99.90;;;;;;5235871;28;20658;-70
2021/08/31 01:20:21;;;;;;;22.60;11.73;;;15.60;99.90;;;;;;5243780;28;20597;-69
2021/08/31 01:22:53;;;;;;;18.13;11.57;;;15.60;99.90;;;;;;5246223;28;20197;-69
2021/08/31 01:25:25;;;;;;;20.47;12.43;;;15.60;99.90;;;;;;5235374;28;20240;-68
2021/08/31 01:27:57;;;;;;;20.53;12.23;;;15.60;99.90;;;;;;5253006;28;20204;-70
2021/08/31 01:30:32;;;;;;;21.73;12.23;;;15.60;99.90;;;;;;5242278;28;20225;-69
2021/08/31 01:33:04;;;;;;;21.70;12.17;;;15.60;99.90;;;;;;5232572;28;20226;-68
2021/08/31 01:35:36;;;;;;;20.37;11.67;;;15.60;99.90;;;;;;5231698;28;20256;-68
2021/08/31 01:38:09;;;;;;;20.83;12.30;;;15.60;99.90;;;;;;5232290;28;20214;-68
2021/08/31 01:40:45;;;;;;;21.80;12.97;;;15.60;99.90;;;;;;5232325;28;20573;-68
2021/08/31 01:43:27;;;;;;;18.33;12.27;;;15.60;99.90;;;;;;5232575;28;20216;-68
2021/08/31 01:46:00;;;;;;;20.93;12.07;;;15.50;99.90;;;;;;5232548;28;20244;-70
2021/08/31 01:48:34;;;;;;;23.37;12.20;;;15.60;99.90;;;;;;5232551;28;20653;-69
2021/08/31 01:51:07;;;;;;;18.10;11.93;;;15.60;99.90;;;;;;5214466;28;20277;-69
2021/08/31 01:53:41;;;;;;;18.30;12.10;;;15.60;99.90;;;;;;5232060;28;20221;-70
2021/08/31 01:56:13;;;;;;;21.03;13.40;;;15.60;99.90;;;;;;5232155;28;20226;-69
2021/08/31 01:58:45;;;;;;;19.73;13.30;;;15.60;99.90;;;;;;5230757;28;20267;-69
2021/08/31 02:01:17;;;;;;;22.43;13.37;;;15.60;99.90;;;;;;5231320;28;20225;-70
2021/08/31 02:03:54;;;;;;;22.90;13.83;;;15.60;99.90;;;;;;5231554;28;20641;-68
2021/08/31 02:06:26;;;;;;;25.17;12.87;;;15.60;99.90;;;;;;5229722;28;20224;-67
2021/08/31 02:08:58;;;;;;;27.57;14.00;;;15.60;99.90;;;;;;5214182;28;20212;-68
2021/08/31 02:11:33;;;;;;;21.90;12.87;;;15.60;99.90;;;;;;5231959;28;20229;-68
2021/08/31 02:14:07;;;;;;;28.40;13.07;;;15.60;99.90;;;;;;5230641;28;20225;-68
2021/08/31 02:16:41;;;;;;;21.70;13.77;;;15.60;99.90;;;;;;5214595;28;20269;-68
2021/08/31 02:19:14;;;;;;;22.27;13.17;;;15.60;99.90;;;;;;5231556;28;20189;-68
2021/08/31 02:21:48;;;;;;;23.63;13.00;;;15.60;99.90;;;;;;5229744;28;20237;-68
2021/08/31 02:24:20;;;;;;;20.83;12.67;;;15.60;99.90;;;;;;5231246;28;20216;-67
2021/08/31 02:26:52;;;;;;;23.00;12.97;;;15.60;99.90;;;;;;5230884;28;20241;-68
2021/08/31 02:29:25;;;;;;;24.77;13.90;;;15.70;99.90;;;;;;5230846;28;20205;-69
2021/08/31 02:31:57;;;;;;;22.00;14.10;;;15.60;99.90;;;;;;5231265;28;20680;-68
2021/08/31 02:34:29;;;;;;;23.37;13.20;;;15.60;99.90;;;;;;5230968;28;20229;-69
2021/08/31 02:37:04;;;;;;;28.80;13.43;;;15.60;99.90;;;;;;5229673;28;20229;-68
2021/08/31 02:39:36;;;;;;;18.00;13.57;;;15.60;99.90;;;;;;5230008;28;20207;-69
2021/08/31 02:42:11;;;;;;;22.90;14.07;;;15.60;99.90;;;;;;5230903;28;20206;-69
2021/08/31 02:44:46;;;;;;;25.20;14.00;;;15.60;99.90;;;;;;5230361;28;20299;-68
2021/08/31 02:47:21;;;;;;;21.17;13.60;;;15.60;99.90;;;;;;5230196;28;20261;-68
2021/08/31 02:49:54;;;;;;;20.37;13.07;;;15.60;99.90;;;;;;5231059;28;20272;-68
2021/08/31 02:52:29;;;;;;;22.90;14.30;;;15.60;99.90;;;;;;5230338;28;20244;-69
2021/08/31 02:55:03;;;;;;;21.63;13.80;;;15.60;99.90;;;;;;5229751;28;20589;-69
2021/08/31 02:57:37;;;;;;;24.00;14.43;;;15.60;99.90;;;;;;5230600;28;20228;-69
2021/08/31 03:00:17;;;;;;;26.73;14.67;;;15.60;99.90;;;;;;5229551;28;20225;-68
2021/08/31 03:02:49;;;;;;;23.13;14.27;;;15.60;99.90;;;;;;5230498;28;20240;-70
2021/08/31 03:05:21;;;;;;;23.37;14.40;;;15.60;99.90;;;;;;5229508;28;20279;-68
2021/08/31 03:07:53;;;;;;;27.80;15.53;;;15.60;99.90;;;;;;5229972;28;20234;-68
2021/08/31 03:10:27;;;;;;;29.90;15.80;;;15.60;99.90;;;;;;5230491;28;20190;-69
2021/08/31 03:12:59;;;;;;;23.53;14.70;;;15.60;99.90;;;;;;5212689;28;20205;-68
2021/08/31 03:15:32;;;;;;;23.43;14.87;;;15.60;99.90;;;;;;5230295;28;20182;-69
2021/08/31 03:18:04;;;;;;;21.30;14.50;;;15.50;99.90;;;;;;5229920;28;20205;-68
2021/08/31 03:20:36;;;;;;;21.83;14.10;;;15.50;99.90;;;;;;5229335;28;20483;-68
2021/08/31 03:23:08;;;;;;;24.37;15.30;;;15.50;99.90;;;;;;5230226;28;20228;-68
2021/08/31 03:25:40;;;;;;;24.40;14.23;;;15.50;99.90;;;;;;5213154;28;20285;-67
2021/08/31 03:28:15;;;;;;;25.50;15.20;;;15.50;99.90;;;;;;5229535;28;20212;-69
2021/08/31 03:30:47;;;;;;;24.67;15.40;;;15.50;99.90;;;;;;5229920;28;20186;-69
2021/08/31 03:33:19;;;;;;;24.43;14.90;;;15.50;99.90;;;;;;5228913;28;20382;-68
2021/08/31 03:35:53;;;;;;;23.23;14.63;;;15.50;99.90;;;;;;5230015;28;20238;-69
2021/08/31 03:38:25;;;;;;;24.27;14.67;;;15.50;99.90;;;;;;5228878;28;20212;-69
2021/08/31 03:40:57;;;;;;;22.67;14.93;;;15.60;99.90;;;;;;5230198;28;20603;-68
2021/08/31 03:43:32;;;;;;;26.00;14.60;;;15.60;99.90;;;;;;5228478;28;20205;-68
2021/08/31 03:46:04;;;;;;;22.90;14.73;;;15.60;99.90;;;;;;5229272;28;20204;-68
2021/08/31 03:48:36;;;;;;;27.13;14.50;;;15.60;99.90;;;;;;5212326;28;20244;-68
2021/08/31 03:51:08;;;;;;;28.37;15.87;;;15.60;99.90;;;;;;5229587;28;20236;-68
2021/08/31 03:53:42;;;;;;;22.67;14.53;;;15.60;99.90;;;;;;5229619;28;20308;-68
2021/08/31 03:56:16;;;;;;;24.20;14.63;;;15.60;99.90;;;;;;5212036;28;20216;-72
2021/08/31 03:58:48;;;;;;;24.13;14.80;;;15.60;99.90;;;;;;5228048;28;20233;-74
2021/08/31 04:01:21;;;;;;;27.97;15.60;;;15.60;99.90;;;;;;5229638;28;20201;-74
2021/08/31 04:03:53;;;;;;;22.83;14.03;;;15.60;99.90;;;;;;5212253;28;20209;-75
2021/08/31 04:06:27;;;;;;;21.47;14.20;;;15.60;99.90;;;;;;5229196;28;20271;-76
2021/08/31 04:08:59;;;;;;;25.20;14.10;;;15.60;99.90;;;;;;5229973;28;20219;-73
2021/08/31 04:11:31;;;;;;;24.30;13.37;;;15.60;99.90;;;;;;5230034;28;20263;-76
2021/08/31 04:14:06;;;;;;;20.73;13.33;;;15.60;99.90;;;;;;5228973;28;20581;-73
2021/08/31 04:16:38;;;;;;;19.87;12.90;;;15.60;99.90;;;;;;5211642;28;20528;-73
2021/08/31 04:19:10;;;;;;;22.67;13.77;;;15.60;99.90;;;;;;5229276;28;20202;-73
2021/08/31 04:21:42;;;;;;;19.87;12.10;;;15.50;99.90;;;;;;5227884;28;20205;-74
2021/08/31 04:24:14;;;;;;;18.73;11.70;;;15.60;99.90;;;;;;5228821;28;20655;-71
2021/08/31 04:26:48;;;;;;;20.40;11.77;;;15.50;99.90;;;;;;5229234;28;20202;-74
2021/08/31 04:29:20;;;;;;;17.07;11.87;;;15.50;99.90;;;;;;5228161;28;20216;-75
2021/08/31 04:31:54;;;;;;;23.83;11.50;;;15.60;99.90;;;;;;5228842;28;20202;-73
2021/08/31 04:34:26;;;;;;;18.73;11.10;;;15.50;99.90;;;;;;5227636;28;20570;-74
2021/08/31 04:36:58;;;;;;;18.37;11.70;;;15.50;99.90;;;;;;5228817;28;20201;-73
2021/08/31 04:39:30;;;;;;;15.37;11.10;;;15.60;99.90;;;;;;5229049;28;20292;-75
2021/08/31 04:42:03;;;;;;;18.90;11.53;;;15.60;99.90;;;;;;5228655;28;20247;-75
2021/08/31 04:44:35;;;;;;;19.70;10.83;;;15.60;99.90;;;;;;5228521;28;20215;-73
2021/08/31 04:47:10;;;;;;;15.90;10.60;;;15.60;99.90;;;;;;5228666;28;20202;-73
2021/08/31 04:49:44;;;;;;;15.00;10.47;;;15.60;99.90;;;;;;5228860;28;20209;-73
2021/08/31 04:52:19;;;;;;;17.47;10.80;;;15.60;99.90;;;;;;5229166;28;20201;-75
2021/08/31 04:54:51;;;;;;;22.37;11.47;;;15.60;99.90;;;;;;5227472;28;20220;-73
2021/08/31 04:57:24;;;;;;;17.77;10.83;;;15.60;99.90;;;;;;5228456;28;20212;-75
2021/08/31 04:59:56;;;;;;;15.73;10.70;;;15.70;99.90;;;;;;5227302;28;20244;-73
2021/08/31 05:02:30;;;;;;;15.93;10.90;;;15.60;99.90;;;;;;5228148;28;20221;-76
2021/08/31 05:05:04;;;;;;;15.53;10.77;;;15.70;99.90;;;;;;5227489;28;20236;-73
2021/08/31 05:07:38;;;;;;;20.60;10.17;;;15.70;99.90;;;;;;5229040;28;20302;-75
2021/08/31 05:10:12;;;;;;;16.00;11.30;;;15.70;99.90;;;;;;5228765;28;20211;-74
2021/08/31 05:12:44;;;;;;;17.33;11.30;;;15.70;99.90;;;;;;5228802;28;20201;-77
2021/08/31 05:15:16;;;;;;;16.30;10.03;;;15.80;99.90;;;;;;5228327;28;20585;-76
2021/08/31 05:17:48;;;;;;;16.17;10.67;;;15.80;99.90;;;;;;5228653;28;20258;-75
2021/08/31 05:20:24;;;;;;;20.93;10.97;;;15.80;99.90;;;;;;5227779;28;20545;-77
2021/08/31 05:22:59;;;;;;;16.43;11.10;;;15.80;99.90;;;;;;5228623;28;20196;-74
2021/08/31 05:25:32;;;;;;;18.80;10.93;;;15.80;99.90;;;;;;5228059;28;20205;-74
2021/08/31 05:28:04;;;;;;;19.23;11.40;;;15.90;99.90;;;;;;5194941;28;20201;-73
2021/08/31 05:30:36;;;;;;;20.17;10.83;;;15.80;99.90;;;;;;5229013;28;20213;-74
2021/08/31 05:33:08;;;;;;;18.33;10.57;;;15.90;99.90;;;;;;5227409;28;20246;-72
2021/08/31 05:35:40;;;;;;;19.23;11.63;;;15.90;99.90;;;;;;5210808;28;20229;-73
2021/08/31 05:38:12;;;;;;;17.07;11.57;;;15.80;99.90;;;;;;5227600;28;20240;-73
2021/08/31 05:40:46;;;;;;;15.40;10.33;;;15.80;99.90;;;;;;5227422;28;20529;-73
2021/08/31 05:43:19;;;;;;;16.30;10.53;;;15.80;99.90;;;;;;5228020;28;20243;-75
2021/08/31 05:45:51;;;;;;;15.87;10.43;;;15.80;99.90;;;;;;5228095;28;20210;-74
2021/08/31 05:48:24;;;;;;;15.30;10.47;;;15.90;99.90;;;;;;5210676;28;20542;-76
2021/08/31 05:50:56;;;;;;;14.53;10.37;;;15.90;99.90;;;;;;5227767;28;20216;-73
2021/08/31 05:53:31;;;;;;;21.50;11.17;;;15.90;99.90;;;;;;5226843;28;20230;-77
2021/08/31 05:56:03;;;;;;;15.47;10.67;;;15.90;99.90;;;;;;5228326;28;20540;-72
2021/08/31 05:58:35;;;;;;;16.80;11.10;;;15.90;99.90;;;;;;5214343;28;20233;-76
2021/08/31 06:01:07;;;;;;;17.17;11.03;;;15.90;99.90;;;;;;5231231;28;20626;-76
2021/08/31 06:03:40;;;;;;;21.07;10.67;;;15.90;99.90;;;;;;5231644;28;20664;-74
2021/08/31 06:06:17;;;;;;;17.63;10.97;;;15.90;99.90;;;;;;5197823;28;20541;-74
2021/08/31 06:08:51;;;;;;;18.13;10.63;;;16.00;99.90;;;;;;5231669;28;20604;-74
2021/08/31 06:11:23;;;;;;;18.33;11.20;;;16.00;99.90;;;;;;5230853;28;20201;-75
2021/08/31 06:13:55;;;;;;;15.23;10.13;;;16.00;99.90;;;;;;5232622;28;20241;-76
2021/08/31 06:16:27;;;;;;;17.07;10.80;;;16.00;99.90;;;;;;5214721;28;20526;-74
2021/08/31 06:19:00;;;;;;;12.80;9.53;;;16.00;99.90;;;;;;5230311;28;20236;-76
2021/08/31 06:21:33;;;;;;;24.13;10.83;;;16.00;99.90;;;;;;5232630;28;20647;-76
2021/08/31 06:24:05;;;;;;;17.30;10.60;;;16.00;99.90;;;;;;5232210;28;20229;-66
2021/08/31 06:26:37;;;;;;;15.70;9.90;;;16.00;99.90;;;;;;5231663;28;20212;-65
2021/08/31 06:29:09;;;;;;;16.57;10.60;;;16.10;99.90;;;;;;5230210;28;20229;-65
2021/08/31 06:31:42;;;;;;;17.83;10.90;;;16.10;99.90;;;;;;5233051;28;20539;-65
2021/08/31 06:34:13;;;;;;;16.23;10.97;;;16.10;99.90;;;;;;5230634;28;20229;-65
2021/08/31 06:36:47;;;;;;;16.53;10.70;;;16.10;99.90;;;;;;5231186;28;20205;-63
2021/08/31 06:39:19;;;;;;;13.90;10.47;;;16.10;99.90;;;;;;5231275;28;20229;-65
2021/08/31 06:41:53;;;;;;;14.60;10.33;;;16.10;99.90;;;;;;5230584;28;20636;-64
2021/08/31 06:44:25;;;;;;;17.13;10.97;;;16.00;99.90;;;;;;5230711;28;20566;-64
2021/08/31 06:47:00;;;;;;;17.57;11.03;;;16.00;99.90;;;;;;5230924;28;20206;-68
2021/08/31 06:49:33;;;;;;;15.83;11.37;;;16.00;99.90;;;;;;5230536;28;20233;-64
2021/08/31 06:52:05;;;;;;;19.17;11.23;;;16.00;99.90;;;;;;5230409;28;20216;-65
2021/08/31 06:54:38;;;;;;;18.10;11.37;;;16.00;99.90;;;;;;5229575;28;20229;-63
2021/08/31 06:57:10;;;;;;;16.87;11.00;;;16.00;99.90;;;;;;5230768;28;20202;-64
2021/08/31 06:59:42;;;;;;;15.87;9.93;;;16.10;99.90;;;;;;5229231;28;20241;-64
2021/08/31 07:02:14;;;;;;;13.80;10.03;;;16.10;99.90;;;;;;5230609;28;20625;-64
2021/08/31 07:04:46;;;;;;;18.17;11.00;;;16.10;99.90;;;;;;5230492;28;20740;-64
2021/08/31 07:07:18;;;;;;;15.03;10.40;;;16.10;99.90;;;;;;5229134;28;20213;-65
2021/08/31 07:09:50;;;;;;;16.43;10.90;;;16.10;99.90;;;;;;5229433;28;20237;-63
2021/08/31 07:12:23;;;;;;;15.40;11.00;;;16.10;99.90;;;;;;5230497;28;20216;-64
2021/08/31 07:14:56;;;;;;;15.87;10.80;;;16.20;99.90;;;;;;5230200;28;20586;-64
2021/08/31 07:17:27;;;;;;;17.83;11.07;;;16.20;99.90;;;;;;5230375;28;20212;-66
2021/08/31 07:19:59;;;;;;;14.50;11.10;;;16.20;99.90;;;;;;5230128;28;20240;-67
2021/08/31 07:22:35;;;;;;;17.23;10.77;;;16.10;99.90;;;;;;5230120;28;20209;-65
2021/08/31 07:25:10;;;;;;;16.37;10.97;;;16.10;99.90;;;;;;5229825;28;20237;-65
2021/08/31 07:27:42;;;;;;;17.33;10.90;;;16.20;99.90;;;;;;5229229;28;20205;-64
2021/08/31 07:30:15;;;;;;;16.93;11.37;;;16.20;99.90;;;;;;5229020;28;20538;-64
2021/08/31 07:32:47;;;;;;;14.67;10.27;;;16.30;99.90;;;;;;5230110;28;20213;-63
2021/08/31 07:35:19;;;;;;;13.00;10.53;;;16.30;99.90;;;;;;5228602;28;20677;-64
2021/08/31 07:37:51;;;;;;;16.83;10.53;;;16.40;99.90;;;;;;5229282;28;20487;-67
2021/08/31 07:40:23;;;;;;;16.90;11.27;;;16.40;99.90;;;;;;5229659;28;20261;-63
2021/08/31 07:42:56;;;;;;;14.47;10.13;;;16.50;99.90;;;;;;5229745;28;20617;-67
2021/08/31 07:45:30;;;;;;;14.20;10.93;;;16.40;99.90;;;;;;5226643;28;20564;-65
2021/08/31 07:48:03;;;;;;;14.13;10.63;;;16.40;99.90;;;;;;5228398;28;20621;-65
2021/08/31 07:50:35;;;;;;;16.33;10.70;;;16.40;99.90;;;;;;5230126;28;20201;-65
2021/08/31 07:53:07;;;;;;;17.20;10.63;;;16.40;99.90;;;;;;5230339;28;20218;-64
2021/08/31 07:55:39;;;;;;;16.33;11.07;;;16.40;99.90;;;;;;5229451;28;20518;-64
2021/08/31 07:58:11;;;;;;;16.57;10.90;;;16.40;99.90;;;;;;5229880;28;20201;-63
2021/08/31 08:00:43;;;;;;;13.73;10.30;;;16.40;99.90;;;;;;5228159;28;20285;-64
2021/08/31 08:03:17;;;;;;;14.33;10.43;;;16.40;99.90;;;;;;5228143;28;20201;-66
2021/08/31 08:05:52;;;;;;;14.43;10.37;;;16.30;99.90;;;;;;5228576;28;20228;-66
2021/08/31 08:08:24;;;;;;;14.80;10.33;;;16.30;99.90;;;;;;5228136;28;20204;-68
2021/08/31 08:10:57;;;;;;;18.67;11.07;;;16.30;99.90;;;;;;5228754;28;20667;-66
2021/08/31 08:13:28;;;;;;;17.13;10.97;;;16.40;99.90;;;;;;5228198;28;20593;-64
2021/08/31 08:16:00;;;;;;;13.43;10.50;;;16.50;99.90;;;;;;5228960;28;20225;-64
2021/08/31 08:18:33;;;;;;;14.07;10.20;;;16.60;99.90;;;;;;5228929;28;20605;-66
2021/08/31 08:21:05;;;;;;;14.63;10.10;;;16.70;99.90;;;;;;5228532;28;20209;-65
2021/08/31 08:23:38;;;;;;;15.43;10.73;;;16.70;99.90;;;;;;5227668;28;20239;-65
2021/08/31 08:26:10;;;;;;;15.97;10.20;;;16.70;99.90;;;;;;5228043;28;20613;-68
2021/08/31 08:28:44;;;;;;;17.07;10.37;;;16.60;99.90;;;;;;5228873;28;20216;-63
2021/08/31 08:31:17;;;;;;;17.53;10.40;;;16.60;99.90;;;;;;5226360;28;20205;-64
2021/08/31 08:33:49;;;;;;;17.00;9.67;;;16.60;99.90;;;;;;5226823;28;20252;-63
2021/08/31 08:36:22;;;;;;;16.20;10.80;;;16.50;99.90;;;;;;5227711;28;20229;-64
2021/08/31 08:38:54;;;;;;;16.13;10.20;;;16.50;99.90;;;;;;5244549;28;20233;-64
2021/08/31 08:41:28;;;;;;;17.37;10.50;;;16.50;99.90;;;;;;5211271;28;20201;-65
2021/08/31 08:44:03;;;;;;;19.60;10.37;;;16.50;99.90;;;;;;5228934;28;20584;-65
2021/08/31 08:46:35;;;;;;;18.60;10.77;;;16.50;99.90;;;;;;5228653;28;20215;-64
2021/08/31 08:49:11;;;;;;;15.40;10.33;;;16.50;99.90;;;;;;5228349;28;20237;-64
2021/08/31 08:51:43;;;;;;;15.53;10.40;;;16.60;99.90;;;;;;5228577;28;20217;-64
2021/08/31 08:54:16;;;;;;;19.37;10.77;;;16.60;99.90;;;;;;5228413;28;20229;-64
2021/08/31 08:56:48;;;;;;;16.07;9.50;;;16.70;99.90;;;;;;5225770;28;20193;-64
2021/08/31 08:59:21;;;;;;;16.77;9.70;;;16.80;99.90;;;;;;5227373;28;20244;-64
2021/08/31 09:01:57;;;;;;;16.30;10.53;;;16.80;99.90;;;;;;5227881;28;20198;-65
2021/08/31 09:04:45;;;;;;;14.93;10.10;;;16.90;99.90;;;;;;5227238;28;20614;-64
2021/08/31 09:07:22;;;;;;;12.70;9.37;;;16.90;99.90;;;;;;5228231;28;20203;-63
2021/08/31 09:10:18;;;;;;;14.10;8.47;;;17.10;99.90;;;;;;5227885;28;20304;-65
2021/08/31 09:12:54;;;;;;;15.23;9.30;;;17.40;99.90;;;;;;5228644;28;20196;-64
2021/08/31 09:15:39;;;;;;;15.33;9.13;;;17.70;99.90;;;;;;5228278;28;20244;-63
2021/08/31 09:18:17;;;;;;;13.27;8.80;;;17.90;99.90;;;;;;5228286;28;20193;-64
2021/08/31 09:20:55;;;;;;;13.30;8.63;;;17.90;99.90;;;;;;5227632;28;20281;-68
2021/08/31 09:23:28;;;;;;;14.10;8.87;;;18.00;99.90;;;;;;5228151;28;20205;-65
2021/08/31 09:26:09;;;;;;;11.77;8.70;;;18.10;99.90;;;;;;5232249;28;20636;-64
2021/08/31 09:28:42;;;;;;;13.87;9.17;;;18.20;99.90;;;;;;5248986;28;20264;-67
2021/08/31 09:31:21;;;;;;;13.50;8.73;;;17.90;99.90;;;;;;5248862;28;20282;-67
2021/08/31 09:33:57;;;;;;;13.85;9.02;;;17.80;99.90;;;;;;5236064;28;20223;-64
2021/08/31 09:36:34;;;;;;;15.57;9.63;;;17.80;99.90;;;;;;5252655;28;20233;-64
2021/08/31 09:39:12;;;;;;;12.93;9.37;;;17.70;99.90;;;;;;5252104;28;20609;-65
2021/08/31 09:41:46;;;;;;;15.90;9.30;;;17.80;99.90;;;;;;5253054;28;20181;-53
2021/08/31 09:44:26;;;;;;;16.63;8.80;;;18.00;99.90;;;;;;5252547;28;20597;-62
2021/08/31 09:47:00;;;;;;;15.10;9.18;;;18.00;99.90;;;;;;5252808;28;20224;-62
2021/08/31 09:49:37;;;;;;;15.40;9.38;;;18.10;99.90;;;;;;5252078;28;20200;-65
2021/08/31 09:52:16;;;;;;;13.27;9.13;;;18.10;99.90;;;;;;5252397;28;20208;-63
2021/08/31 09:54:49;;;;;;;12.95;8.77;;;18.10;99.90;;;;;;5252257;28;20224;-60
2021/08/31 09:57:31;;;;;;;16.07;9.47;;;18.00;99.90;;;;;;5251435;28;20212;-65
2021/08/31 10:00:09;;;;;;;16.37;8.60;;;17.80;99.90;;;;;;5251145;28;20240;-63
2021/08/31 10:02:43;;;;;;;13.43;8.63;;;17.70;99.90;;;;;;5252658;28;20494;-63
2021/08/31 10:05:15;;;;;;;12.37;8.43;;;17.60;99.90;;;;;;5251347;28;20624;-58
2021/08/31 10:07:47;;;;;;;13.50;8.60;;;17.60;99.90;;;;;;5249932;28;20207;-63
2021/08/31 10:10:22;;;;;;;13.35;9.40;;;17.70;99.90;;;;;;5252498;28;20656;-63
2021/08/31 10:12:56;;;;;;;14.90;8.90;;;17.70;99.90;;;;;;5236155;28;20612;-62
2021/08/31 10:15:35;;;;;;;14.70;8.73;;;17.80;99.90;;;;;;5230910;28;20245;-62
2021/08/31 10:18:11;;;;;;;14.88;8.98;;;17.80;99.90;;;;;;5231442;28;20202;-68
2021/08/31 10:20:49;;;;;;;13.57;9.40;;;17.70;99.90;;;;;;5214537;28;20581;-64
2021/08/31 10:23:27;;;;;;;13.27;8.97;;;17.50;99.90;;;;;;5231513;28;20231;-62
2021/08/31 10:26:33;;;;;;;14.52;9.48;;;17.40;99.90;;;;;;5231544;28;20216;-60
2021/08/31 10:29:24;;;;;;;15.90;10.17;;;17.20;99.90;;;;;;5230305;28;20678;-56
2021/08/31 10:32:01;;;;;;;16.53;9.30;;;17.30;99.90;;;;;;5231548;28;20213;-64
2021/08/31 10:34:33;;;;;;;15.13;8.97;;;17.30;99.90;;;;;;5224186;28;20209;-62
2021/08/31 10:37:10;;;;;;;15.50;9.27;;;17.20;99.90;;;;;;5230262;28;20233;-63
2021/08/31 10:39:51;;;;;;;12.20;8.13;;;17.20;99.90;;;;;;5229752;28;20198;-63
2021/08/31 10:42:31;;;;;;;14.50;8.77;;;17.40;99.90;;;;;;5228662;28;20632;-66
2021/08/31 10:45:26;;;;;;;16.63;8.53;;;17.50;99.90;;;;;;5234243;28;20210;-68
2021/08/31 10:47:59;;;;;;;14.33;8.60;;;17.50;99.90;;;;;;5233796;28;20252;-68
2021/08/31 10:50:31;;;;;;;12.93;8.03;;;17.70;99.90;;;;;;5229982;28;20288;-58
2021/08/31 10:53:07;;;;;;;15.00;8.23;;;17.80;99.90;;;;;;5246997;28;20239;-66
2021/08/31 10:55:43;;;;;;;18.33;8.40;;;17.80;99.90;;;;;;5236446;28;20201;-60
2021/08/31 10:58:36;;;;;;;13.40;7.83;;;17.80;99.90;;;;;;5239274;28;20197;-68
2021/08/31 11:01:16;;;;;;;12.97;7.47;;;17.70;99.90;;;;;;5231462;28;20296;-69
2021/08/31 11:03:52;;;;;;;11.02;8.07;;;17.50;99.90;;;;;;5243180;28;20213;-70
2021/08/31 11:06:32;;;;;;;17.58;9.07;;;17.30;99.90;;;;;;5231536;28;20686;-69
2021/08/31 11:09:10;;;;;;;12.90;7.57;;;17.30;99.90;;;;;;5236103;28;20229;-66
2021/08/31 11:11:48;;;;;;;9.73;7.40;;;17.30;99.90;;;;;;5246914;28;20197;-64
2021/08/31 11:14:20;;;;;;;12.77;7.77;;;17.40;99.90;;;;;;5228330;28;20236;-73
2021/08/31 11:16:55;;;;;;;15.60;7.70;;;17.50;99.90;;;;;;5231697;28;20237;-63
2021/08/31 11:19:28;;;;;;;12.20;8.07;;;17.60;99.90;;;;;;5209547;28;20661;-65
2021/08/31 11:22:03;;;;;;;12.80;8.43;;;17.60;99.90;;;;;;5228310;28;20633;-61
2021/08/31 11:24:35;;;;;;;18.67;8.10;;;17.70;99.90;;;;;;5238441;28;20546;-62
2021/08/31 11:27:06;;;;;;;13.40;7.50;;;17.70;99.90;;;;;;5251735;28;20212;-69
2021/08/31 11:29:39;;;;;;;15.60;7.63;;;17.70;99.90;;;;;;5235433;28;20205;-63
2021/08/31 11:32:11;;;;;;;12.93;7.30;;;17.50;99.90;;;;;;5241711;28;20200;-74
2021/08/31 11:35:01;;;;;;;10.43;7.00;;;17.40;99.90;;;;;;5219561;28;20227;-72
2021/08/31 11:37:46;;;;;;;12.60;7.53;;;17.30;99.90;;;;;;5220720;28;20185;-70
2021/08/31 11:40:26;;;;;;;13.93;6.85;;;17.40;99.90;;;;;;5222329;28;20563;-60
2021/08/31 11:42:59;;;;;;;14.53;7.13;;;17.50;99.90;;;;;;5232398;28;20295;-64
2021/08/31 11:45:39;;;;;;;15.07;7.63;;;17.60;99.90;;;;;;5231299;28;20303;-64
2021/08/31 11:48:11;;;;;;;10.50;6.90;;;17.70;99.90;;;;;;5236434;28;20242;-59
2021/08/31 11:50:58;;;;;;;15.60;7.50;;;17.70;99.90;;;;;;5235484;28;20621;-61
2021/08/31 11:53:31;;;;;;;11.05;6.85;;;17.70;99.90;;;;;;5227364;28;20205;-69
2021/08/31 11:56:06;;;;;;;13.77;7.40;;;17.80;99.90;;;;;;5249783;28;20275;-68
2021/08/31 11:58:44;;;;;;;13.20;7.80;;;17.70;99.90;;;;;;5250914;28;20236;-67
2021/08/31 12:01:29;;;;;;;12.83;7.43;;;17.80;99.90;;;;;;5231417;28;20221;-68
2021/08/31 12:04:21;;;;;;;12.98;7.88;;;17.80;99.90;;;;;;5238340;28;20473;-68
2021/08/31 12:06:57;;;;;;;14.17;8.00;;;17.80;99.90;;;;;;5234646;28;20236;-69
2021/08/31 12:09:31;;;;;;;13.52;7.38;;;17.80;99.90;;;;;;5201597;28;20192;-68
2021/08/31 12:12:03;;;;;;;14.80;7.80;;;17.90;99.90;;;;;;5240853;28;20231;-69
2021/08/31 12:14:36;;;;;;;14.17;7.40;;;17.80;99.90;;;;;;5244025;28;20283;-70
2021/08/31 12:17:11;;;;;;;13.43;7.40;;;17.60;99.90;;;;;;5232963;28;20229;-69
2021/08/31 12:19:46;;;;;;;15.73;8.20;;;17.60;99.90;;;;;;5244125;28;20200;-68
2021/08/31 12:22:19;;;;;;;15.13;8.10;;;17.50;99.90;;;;;;5240064;28;20224;-69
2021/08/31 12:24:59;;;;;;;13.18;8.15;;;17.40;99.90;;;;;;5233222;28;20505;-70
2021/08/31 12:27:44;;;;;;;14.67;7.30;;;17.30;99.90;;;;;;5217345;28;20224;-68
2021/08/31 12:30:41;;;;;;;13.00;6.77;;;17.20;99.90;;;;;;5242748;28;20759;-67
2021/08/31 12:33:27;;;;;;;17.73;7.73;;;17.10;99.90;;;;;;5239787;28;20233;-70
2021/08/31 12:36:09;;;;;;;12.63;7.05;;;17.10;99.90;;;;;;5228596;28;20216;-67
2021/08/31 12:38:46;;;;;;;11.53;6.90;;;17.30;99.90;;;;;;5241833;28;20233;-70
2021/08/31 12:41:26;;;;;;;12.27;6.87;;;17.40;99.90;;;;;;5232725;28;20212;-68
2021/08/31 12:44:02;;;;;;;16.37;7.33;;;17.60;99.90;;;;;;5240393;28;20213;-67
2021/08/31 12:46:36;;;;;;;14.55;7.88;;;17.70;99.90;;;;;;5242359;28;20209;-50
2021/08/31 12:49:12;;;;;;;15.47;7.43;;;17.60;99.90;;;;;;5242718;28;20327;-45
2021/08/31 12:51:45;;;;;;;12.83;6.40;;;17.50;99.90;;;;;;5219582;28;20331;-67
2021/08/31 12:54:35;;;;;;;13.80;6.87;;;17.40;99.90;;;;;;5238011;28;20762;-67
2021/08/31 12:57:08;;;;;;;12.97;7.00;;;17.40;99.90;;;;;;5247666;28;20228;-67
2021/08/31 12:59:42;;;;;;;10.73;6.27;;;17.40;99.90;;;;;;5231695;28;20259;-68
2021/08/31 13:02:17;;;;;;;12.83;5.97;;;17.50;99.90;;;;;;5232740;28;20558;-67
2021/08/31 13:05:12;;;;;;;10.57;5.63;;;17.40;99.90;;;;;;5226960;28;20232;-69
2021/08/31 13:07:44;;;;;;;11.13;5.80;;;17.30;99.90;;;;;;5236129;28;20196;-66